Time;durP1;ratioP1;P1;durP2;ratioP2;P2;SDS_P1;SDS_P2;PMS_P1;PMS_P2;Temp;Humidity;BMP_temperature;BMP_pressure;BME280_temperature;BME280_humidity;BME280_pressure;Samples;Min_cycle;Max_cycle;Signal;HPM_P1;HPM_P2
2021/06/08 00:02:09;;;;;;;17.92;11.27;;;;;;;;;;5018450;28;20659;-69
2021/06/08 00:04:34;;;;;;;12.57;11.27;;;;;;;;;;5021980;28;20650;-69
2021/06/08 00:06:59;;;;;;;14.10;11.98;;;;;;;;;;5015157;28;20197;-69
2021/06/08 00:09:25;;;;;;;13.63;11.35;;;;;;;;;;5022177;28;20206;-69
2021/06/08 00:11:50;;;;;;;13.27;11.73;;;;;;;;;;5020791;28;20507;-68
2021/06/08 00:14:16;;;;;;;13.65;11.00;;;;;;;;;;5017695;28;20214;-69
2021/06/08 00:16:41;;;;;;;13.07;11.52;;;;;;;;;;5025711;28;20660;-69
2021/06/08 00:19:06;;;;;;;12.95;10.88;;;;;;;;;;5010554;28;20183;-69
2021/06/08 00:21:32;;;;;;;15.00;11.48;;;;;;;;;;5025363;28;20190;-69
2021/06/08 00:23:57;;;;;;;13.90;11.60;;;;;;;;;;5008273;28;20198;-70
2021/06/08 00:26:22;;;;;;;17.35;12.77;;;;;;;;;;5024008;28;20540;-69
2021/06/08 00:28:48;;;;;;;18.52;12.35;;;;;;;;;;5017733;28;20499;-69
2021/06/08 00:31:13;;;;;;;15.15;11.93;;;;;;;;;;5018941;28;20591;-70
2021/06/08 00:33:38;;;;;;;15.85;12.77;;;;;;;;;;5013638;28;20598;-70
2021/06/08 00:36:04;;;;;;;18.77;13.95;;;;;;;;;;5022672;28;20701;-69
2021/06/08 00:38:30;;;;;;;16.95;12.68;;;;;;;;;;5014572;28;20187;-69
2021/06/08 00:40:55;;;;;;;17.52;13.13;;;;;;;;;;5025972;28;20204;-69
2021/06/08 00:43:24;;;;;;;16.95;13.68;;;;;;;;;;5011567;28;20919;-70
2021/06/08 00:45:52;;;;;;;16.45;13.43;;;;;;;;;;5026318;28;20197;-69
2021/06/08 00:48:18;;;;;;;17.88;14.95;;;;;;;;;;5019663;28;20206;-69
2021/06/08 00:50:43;;;;;;;18.88;14.15;;;;;;;;;;5018234;28;20182;-69
2021/06/08 00:53:08;;;;;;;16.83;14.02;;;;;;;;;;5020705;28;20520;-69
2021/06/08 00:55:34;;;;;;;16.45;14.52;;;;;;;;;;5015320;28;20201;-69
2021/06/08 00:57:59;;;;;;;20.60;15.07;;;;;;;;;;5020631;28;20191;-69
2021/06/08 01:00:25;;;;;;;19.83;16.42;;;;;;;;;;5013837;28;20185;-70
2021/06/08 01:02:50;;;;;;;22.52;17.63;;;;;;;;;;5020374;28;20194;-69
2021/06/08 01:05:16;;;;;;;22.13;16.40;;;;;;;;;;5012837;28;20201;-69
2021/06/08 01:07:41;;;;;;;23.23;17.35;;;;;;;;;;5020711;28;20217;-69
2021/06/08 01:10:09;;;;;;;19.52;15.55;;;;;;;;;;5013567;28;20213;-70
2021/06/08 01:12:35;;;;;;;21.50;17.35;;;;;;;;;;5020496;28;20278;-69
2021/06/08 01:15:00;;;;;;;23.75;17.98;;;;;;;;;;5014764;28;20265;-70
2021/06/08 01:17:26;;;;;;;20.13;16.98;;;;;;;;;;5019587;28;20185;-69
2021/06/08 01:19:55;;;;;;;21.73;17.30;;;;;;;;;;5019772;28;20764;-69
2021/06/08 01:22:21;;;;;;;24.77;19.15;;;;;;;;;;5013287;28;20196;-69
2021/06/08 01:24:46;;;;;;;24.67;18.35;;;;;;;;;;5025440;28;20197;-69
2021/06/08 01:27:12;;;;;;;23.05;17.15;;;;;;;;;;5011125;28;20184;-69
2021/06/08 01:29:40;;;;;;;20.92;17.95;;;;;;;;;;5022682;28;20218;-69
2021/06/08 01:32:07;;;;;;;22.20;17.15;;;;;;;;;;5011856;28;20194;-69
2021/06/08 01:34:34;;;;;;;22.58;17.80;;;;;;;;;;5021498;28;20245;-69
2021/06/08 01:36:59;;;;;;;21.98;17.23;;;;;;;;;;5011827;28;20193;-69
2021/06/08 01:39:26;;;;;;;22.38;18.55;;;;;;;;;;5021305;28;20188;-69
2021/06/08 01:41:51;;;;;;;21.23;16.58;;;;;;;;;;5013557;28;20552;-70
2021/06/08 01:44:17;;;;;;;24.10;18.75;;;;;;;;;;5020063;28;20234;-70
2021/06/08 01:46:42;;;;;;;21.65;18.25;;;;;;;;;;5009808;28;20202;-69
2021/06/08 01:49:08;;;;;;;22.25;18.15;;;;;;;;;;5030763;28;20620;-69
2021/06/08 01:51:46;;;;;;;25.50;19.75;;;;;;;;;;5025203;28;20247;-70
2021/06/08 01:54:16;;;;;;;25.10;18.80;;;;;;;;;;5018964;28;20178;-69
2021/06/08 01:56:44;;;;;;;22.17;18.50;;;;;;;;;;5017346;28;20233;-72
2021/06/08 01:59:32;;;;;;;22.17;19.10;;;;;;;;;;5014707;28;20182;-69
2021/06/08 02:02:10;;;;;;;28.10;19.83;;;;;;;;;;5020281;28;20210;-69
2021/06/08 02:04:52;;;;;;;24.85;18.58;;;;;;;;;;5015246;28;20190;-69
2021/06/08 02:07:33;;;;;;;27.45;21.02;;;;;;;;;;5022188;28;20201;-69
2021/06/08 02:10:27;;;;;;;27.15;20.55;;;;;;;;;;5025232;28;20196;-69
2021/06/08 02:13:05;;;;;;;27.40;19.30;;;;;;;;;;5014798;28;20257;-69
2021/06/08 02:15:33;;;;;;;26.67;22.30;;;;;;;;;;5021655;28;20190;-69
2021/06/08 02:18:00;;;;;;;32.08;22.42;;;;;;;;;;5011087;28;20577;-69
2021/06/08 02:20:30;;;;;;;28.08;22.45;;;;;;;;;;5018499;28;20274;-69
2021/06/08 02:23:00;;;;;;;29.48;22.27;;;;;;;;;;5011947;28;20187;-69
2021/06/08 02:25:28;;;;;;;30.83;23.63;;;;;;;;;;5012660;28;20189;-70
2021/06/08 02:27:56;;;;;;;29.08;22.80;;;;;;;;;;5014998;28;20681;-69
2021/06/08 02:30:22;;;;;;;25.88;21.23;;;;;;;;;;5007832;28;20190;-70
2021/06/08 02:32:49;;;;;;;27.10;21.33;;;;;;;;;;5021753;28;20353;-70
2021/06/08 02:35:17;;;;;;;27.15;22.15;;;;;;;;;;5014590;28;20224;-70
2021/06/08 02:37:43;;;;;;;27.75;21.25;;;;;;;;;;5019180;28;20194;-68
2021/06/08 02:40:10;;;;;;;25.38;20.80;;;;;;;;;;5013916;28;20714;-70
2021/06/08 02:42:35;;;;;;;30.95;22.67;;;;;;;;;;5025855;28;20517;-68
2021/06/08 02:45:03;;;;;;;31.17;24.30;;;;;;;;;;5014571;28;20197;-69
2021/06/08 02:47:29;;;;;;;29.20;23.58;;;;;;;;;;5019086;28;20232;-69
2021/06/08 02:49:56;;;;;;;33.97;26.02;;;;;;;;;;5009537;28;24189;-69
2021/06/08 02:52:22;;;;;;;30.67;23.60;;;;;;;;;;5014561;28;20635;-70
2021/06/08 02:54:50;;;;;;;34.42;24.48;;;;;;;;;;5014441;28;20197;-69
2021/06/08 02:57:16;;;;;;;33.30;26.10;;;;;;;;;;5015744;28;20185;-69
2021/06/08 02:59:43;;;;;;;32.20;24.55;;;;;;;;;;5015965;28;20225;-69
2021/06/08 03:02:12;;;;;;;33.35;24.13;;;;;;;;;;5006653;28;20356;-69
2021/06/08 03:04:50;;;;;;;32.38;25.98;;;;;;;;;;5027546;28;20182;-69
2021/06/08 03:07:16;;;;;;;32.88;25.90;;;;;;;;;;5011769;28;20284;-69
2021/06/08 03:09:55;;;;;;;34.20;26.83;;;;;;;;;;5027912;28;20233;-69
2021/06/08 03:12:25;;;;;;;36.85;25.60;;;;;;;;;;5010410;28;20194;-69
2021/06/08 03:14:51;;;;;;;36.28;27.48;;;;;;;;;;5019783;28;21088;-69
2021/06/08 03:17:21;;;;;;;38.17;27.45;;;;;;;;;;5011081;28;20194;-70
2021/06/08 03:19:48;;;;;;;37.03;27.42;;;;;;;;;;5027360;28;20186;-69
2021/06/08 03:22:17;;;;;;;36.60;25.55;;;;;;;;;;5017451;28;20664;-69
2021/06/08 03:24:45;;;;;;;35.67;27.05;;;;;;;;;;5027004;28;20281;-69
2021/06/08 03:27:13;;;;;;;35.00;25.75;;;;;;;;;;5015860;28;20224;-69
2021/06/08 03:29:38;;;;;;;38.78;27.13;;;;;;;;;;5024494;28;20206;-69
2021/06/08 03:32:05;;;;;;;34.13;24.38;;;;;;;;;;5015552;28;20209;-69
2021/06/08 03:34:32;;;;;;;32.90;25.60;;;;;;;;;;5023632;28;20190;-69
2021/06/08 03:37:00;;;;;;;35.03;26.05;;;;;;;;;;5011789;28;20190;-69
2021/06/08 03:39:26;;;;;;;33.67;25.50;;;;;;;;;;5023496;28;20533;-69
2021/06/08 03:41:52;;;;;;;37.05;27.58;;;;;;;;;;5023924;28;20647;-69
2021/06/08 03:44:19;;;;;;;37.28;27.77;;;;;;;;;;5016559;28;20360;-69
2021/06/08 03:46:46;;;;;;;40.35;27.80;;;;;;;;;;5023582;28;20266;-69
2021/06/08 03:49:13;;;;;;;36.58;27.58;;;;;;;;;;5015945;28;20800;-69
2021/06/08 03:51:38;;;;;;;36.05;26.65;;;;;;;;;;5025890;28;20195;-69
2021/06/08 03:54:04;;;;;;;39.63;27.45;;;;;;;;;;5016805;28;20193;-69
2021/06/08 03:56:30;;;;;;;39.20;27.27;;;;;;;;;;5030597;28;20190;-69
2021/06/08 03:58:56;;;;;;;37.30;28.70;;;;;;;;;;5014558;28;20182;-69
2021/06/08 04:01:23;;;;;;;38.50;28.45;;;;;;;;;;5021255;28;20208;-69
2021/06/08 04:03:50;;;;;;;36.80;28.27;;;;;;;;;;5011233;28;20190;-69
2021/06/08 04:06:20;;;;;;;36.42;27.52;;;;;;;;;;5019489;28;20231;-69
2021/06/08 04:08:46;;;;;;;37.13;27.67;;;;;;;;;;5009159;28;20217;-69
2021/06/08 04:11:12;;;;;;;40.70;29.55;;;;;;;;;;5023373;28;20712;-69
2021/06/08 04:13:40;;;;;;;39.40;31.05;;;;;;;;;;5024809;28;20707;-69
2021/06/08 04:16:06;;;;;;;42.15;28.95;;;;;;;;;;5012995;28;20185;-69
2021/06/08 04:18:32;;;;;;;36.45;27.40;;;;;;;;;;5015499;28;20193;-69
2021/06/08 04:20:59;;;;;;;43.25;30.95;;;;;;;;;;5010856;28;20209;-69
2021/06/08 04:23:26;;;;;;;38.25;29.73;;;;;;;;;;5017289;28;20195;-69
2021/06/08 04:25:52;;;;;;;34.15;27.20;;;;;;;;;;5012918;28;20251;-69
2021/06/08 04:28:19;;;;;;;38.10;28.20;;;;;;;;;;5018845;28;20221;-70
2021/06/08 04:30:47;;;;;;;37.30;28.45;;;;;;;;;;5012559;28;20190;-70
2021/06/08 04:33:12;;;;;;;36.55;27.70;;;;;;;;;;5023552;28;20182;-70
2021/06/08 04:35:38;;;;;;;37.17;28.92;;;;;;;;;;5007945;28;20190;-69
2021/06/08 04:38:03;;;;;;;36.92;28.67;;;;;;;;;;5021659;28;20180;-70
2021/06/08 04:40:31;;;;;;;35.45;26.45;;;;;;;;;;5012482;28;20197;-69
2021/06/08 04:42:56;;;;;;;33.55;26.42;;;;;;;;;;5035454;28;20237;-69
2021/06/08 04:45:22;;;;;;;33.28;26.52;;;;;;;;;;5021676;28;20185;-69
2021/06/08 04:47:47;;;;;;;32.22;25.00;;;;;;;;;;5019808;28;20264;-69
2021/06/08 04:50:14;;;;;;;33.75;26.58;;;;;;;;;;5019809;28;20201;-69
2021/06/08 04:52:40;;;;;;;35.08;27.08;;;;;;;;;;5005883;28;20191;-70
2021/06/08 04:55:07;;;;;;;34.63;27.35;;;;;;;;;;5016822;28;20187;-70
2021/06/08 04:57:33;;;;;;;35.08;27.35;;;;;;;;;;5013931;28;20192;-69
2021/06/08 05:00:11;;;;;;;37.85;27.70;;;;;;;;;;5019252;28;20218;-70
2021/06/08 05:02:59;;;;;;;36.35;27.95;;;;;;;;;;5005898;28;20190;-70
2021/06/08 05:05:30;;;;;;;34.03;27.08;;;;;;;;;;5019644;28;20538;-70
2021/06/08 05:08:15;;;;;;;38.85;29.15;;;;;;;;;;5010395;28;20213;-70
2021/06/08 05:10:51;;;;;;;37.08;28.83;;;;;;;;;;5024666;28;20185;-70
2021/06/08 05:13:17;;;;;;;34.08;27.45;;;;;;;;;;5009333;28;20205;-70
2021/06/08 05:15:44;;;;;;;37.58;28.95;;;;;;;;;;4325258;28;10000807;-69
2021/06/08 05:18:13;;;;;;;40.10;29.27;;;;;;;;;;5006352;28;20688;-69
2021/06/08 05:20:41;;;;;;;34.45;27.42;;;;;;;;;;5015808;28;20777;-69
2021/06/08 05:23:07;;;;;;;40.10;29.73;;;;;;;;;;5011668;28;20193;-69
2021/06/08 05:25:33;;;;;;;35.55;28.67;;;;;;;;;;5017876;28;20190;-69
2021/06/08 05:27:59;;;;;;;36.97;28.15;;;;;;;;;;5010873;28;20206;-70
2021/06/08 05:30:25;;;;;;;36.20;28.17;;;;;;;;;;5017197;28;20193;-70
2021/06/08 05:32:51;;;;;;;35.92;28.40;;;;;;;;;;5016624;28;20212;-70
2021/06/08 05:35:25;;;;;;;36.42;27.98;;;;;;;;;;5004281;28;20198;-70
2021/06/08 05:37:51;;;;;;;35.67;26.83;;;;;;;;;;5021329;28;20533;-70
2021/06/08 05:40:16;;;;;;;37.78;28.13;;;;;;;;;;5012005;28;20716;-69
2021/06/08 05:42:41;;;;;;;36.30;28.65;;;;;;;;;;5026816;28;20218;-69
2021/06/08 05:45:07;;;;;;;38.15;29.20;;;;;;;;;;5015215;28;20650;-69
2021/06/08 05:47:33;;;;;;;37.15;28.90;;;;;;;;;;5018173;28;20212;-70
2021/06/08 05:49:58;;;;;;;41.53;30.98;;;;;;;;;;5012478;28;20221;-69
2021/06/08 05:52:25;;;;;;;40.65;29.90;;;;;;;;;;5027032;28;20189;-70
2021/06/08 05:54:51;;;;;;;41.95;30.52;;;;;;;;;;5011537;28;20186;-70
2021/06/08 05:57:16;;;;;;;40.13;29.40;;;;;;;;;;5024540;28;20538;-69
2021/06/08 05:59:42;;;;;;;43.78;30.52;;;;;;;;;;5015860;28;20186;-69
2021/06/08 06:02:12;;;;;;;41.95;29.92;;;;;;;;;;5021040;28;21680;-68
2021/06/08 06:04:38;;;;;;;40.53;27.77;;;;;;;;;;5008922;28;20178;-69
2021/06/08 06:07:04;;;;;;;41.53;27.63;;;;;;;;;;5025871;28;20196;-70
2021/06/08 06:09:31;;;;;;;41.60;29.55;;;;;;;;;;5025653;28;20687;-70
2021/06/08 06:11:57;;;;;;;43.47;29.55;;;;;;;;;;5015867;28;20656;-70
2021/06/08 06:14:25;;;;;;;44.17;30.42;;;;;;;;;;5026147;28;20184;-71
2021/06/08 06:16:53;;;;;;;47.25;31.15;;;;;;;;;;5007301;28;20198;-70
2021/06/08 06:19:22;;;;;;;49.38;32.25;;;;;;;;;;5021785;28;20201;-70
2021/06/08 06:21:49;;;;;;;53.00;32.70;;;;;;;;;;5014574;28;20236;-70
2021/06/08 06:24:15;;;;;;;50.67;32.67;;;;;;;;;;5023538;28;20182;-70
2021/06/08 06:26:42;;;;;;;49.13;33.08;;;;;;;;;;5014592;28;20273;-70
2021/06/08 06:29:09;;;;;;;51.28;33.25;;;;;;;;;;5022315;28;20268;-70
2021/06/08 06:31:35;;;;;;;42.10;29.38;;;;;;;;;;5012772;28;20667;-74
2021/06/08 06:34:01;;;;;;;45.10;30.23;;;;;;;;;;5023218;28;20669;-70
2021/06/08 06:36:28;;;;;;;42.63;29.92;;;;;;;;;;5020183;28;20194;-70
2021/06/08 06:38:58;;;;;;;40.45;28.55;;;;;;;;;;5028793;28;20251;-70
2021/06/08 06:41:24;;;;;;;44.33;29.75;;;;;;;;;;5018047;28;20190;-70
2021/06/08 06:43:54;;;;;;;44.17;29.77;;;;;;;;;;5025720;28;20261;-70
2021/06/08 06:46:21;;;;;;;44.75;30.52;;;;;;;;;;5024778;28;20178;-70
2021/06/08 06:48:46;;;;;;;51.05;32.38;;;;;;;;;;5018993;28;20210;-69
2021/06/08 06:51:13;;;;;;;48.03;32.88;;;;;;;;;;5026130;28;20212;-69
2021/06/08 06:53:40;;;;;;;46.75;31.95;;;;;;;;;;5018133;28;20270;-69
2021/06/08 06:56:06;;;;;;;48.22;31.00;;;;;;;;;;5025526;28;20248;-69
2021/06/08 06:58:32;;;;;;;43.83;29.75;;;;;;;;;;5014381;28;20270;-69
2021/06/08 07:00:57;;;;;;;44.05;28.63;;;;;;;;;;5029065;28;20304;-69
2021/06/08 07:03:33;;;;;;;32.75;24.67;;;;;;;;;;5013084;28;20261;-69
2021/06/08 07:06:00;;;;;;;30.48;23.80;;;;;;;;;;5029142;28;20653;-69
2021/06/08 07:08:28;;;;;;;31.08;23.52;;;;;;;;;;5017554;28;20198;-70
2021/06/08 07:10:54;;;;;;;32.03;24.50;;;;;;;;;;5034032;28;20684;-69
2021/06/08 07:13:20;;;;;;;36.92;25.75;;;;;;;;;;5018914;28;20724;-70
2021/06/08 07:15:48;;;;;;;39.70;27.92;;;;;;;;;;5024720;28;20201;-69
2021/06/08 07:18:13;;;;;;;42.75;29.60;;;;;;;;;;5020186;28;20679;-70
2021/06/08 07:20:40;;;;;;;44.90;31.25;;;;;;;;;;5020278;28;20175;-69
2021/06/08 07:23:06;;;;;;;40.33;28.45;;;;;;;;;;5026074;28;20198;-70
2021/06/08 07:25:38;;;;;;;41.85;29.77;;;;;;;;;;5018291;28;20233;-69
2021/06/08 07:28:05;;;;;;;42.38;28.83;;;;;;;;;;5019485;28;20666;-70
2021/06/08 07:30:32;;;;;;;45.42;29.80;;;;;;;;;;5021155;28;20257;-69
2021/06/08 07:33:27;;;;;;;36.70;27.13;;;;;;;;;;5021388;28;20266;-70
2021/06/08 07:36:09;;;;;;;42.47;28.05;;;;;;;;;;5016109;28;20499;-69
2021/06/08 07:38:48;;;;;;;39.53;26.58;;;;;;;;;;5025277;28;20174;-70
2021/06/08 07:41:22;;;;;;;38.03;26.38;;;;;;;;;;5019416;28;20189;-70
2021/06/08 07:43:54;;;;;;;33.10;24.35;;;;;;;;;;5023128;28;20233;-69
2021/06/08 07:46:21;;;;;;;34.63;24.98;;;;;;;;;;5018213;28;20664;-70
2021/06/08 07:48:51;;;;;;;32.88;23.85;;;;;;;;;;5026385;28;20210;-69
2021/06/08 07:51:17;;;;;;;32.65;23.90;;;;;;;;;;5019156;28;20240;-70
2021/06/08 07:53:43;;;;;;;31.10;24.08;;;;;;;;;;5024906;28;20190;-70
2021/06/08 07:56:10;;;;;;;30.33;22.73;;;;;;;;;;5019883;28;20202;-70
2021/06/08 07:58:38;;;;;;;27.40;21.75;;;;;;;;;;5024037;28;20255;-71
2021/06/08 08:01:03;;;;;;;24.58;19.85;;;;;;;;;;5018350;28;20617;-73
2021/06/08 08:03:30;;;;;;;26.90;21.15;;;;;;;;;;5025214;28;20190;-70
2021/06/08 08:06:09;;;;;;;29.90;21.85;;;;;;;;;;5020341;28;20221;-70
2021/06/08 08:08:36;;;;;;;27.63;21.65;;;;;;;;;;5021604;28;20221;-69
2021/06/08 08:11:09;;;;;;;28.80;21.63;;;;;;;;;;5015246;28;20208;-74
2021/06/08 08:13:34;;;;;;;28.27;21.15;;;;;;;;;;5026880;28;20216;-70
2021/06/08 08:16:05;;;;;;;27.63;20.80;;;;;;;;;;5017361;28;20269;-70
2021/06/08 08:18:34;;;;;;;28.55;22.42;;;;;;;;;;5021279;28;20198;-70
2021/06/08 08:21:00;;;;;;;28.58;20.88;;;;;;;;;;5028332;28;20181;-70
2021/06/08 08:23:29;;;;;;;28.85;21.23;;;;;;;;;;5015058;28;20193;-70
2021/06/08 08:25:55;;;;;;;27.08;20.88;;;;;;;;;;5025165;28;20174;-70
2021/06/08 08:28:21;;;;;;;23.00;18.88;;;;;;;;;;5014997;28;20537;-70
2021/06/08 08:30:47;;;;;;;27.75;20.67;;;;;;;;;;5029406;28;20181;-70
2021/06/08 08:33:12;;;;;;;27.08;20.40;;;;;;;;;;5015635;28;20210;-70
2021/06/08 08:35:38;;;;;;;26.88;20.15;;;;;;;;;;5025961;28;20228;-70
2021/06/08 08:38:04;;;;;;;22.60;18.58;;;;;;;;;;5014306;28;20183;-70
2021/06/08 08:40:30;;;;;;;28.17;20.58;;;;;;;;;;5027715;28;20185;-70
2021/06/08 08:42:59;;;;;;;28.25;20.48;;;;;;;;;;5017201;28;20996;-70
2021/06/08 08:45:25;;;;;;;26.52;20.80;;;;;;;;;;5018876;28;20244;-70
2021/06/08 08:47:50;;;;;;;24.90;20.05;;;;;;;;;;5014979;28;20194;-70
2021/06/08 08:50:31;;;;;;;27.35;21.15;;;;;;;;;;5011021;28;20233;-70
2021/06/08 08:53:03;;;;;;;23.83;19.25;;;;;;;;;;5012384;28;20273;-70
2021/06/08 08:55:31;;;;;;;23.60;19.40;;;;;;;;;;5023242;28;20190;-70
2021/06/08 08:57:59;;;;;;;22.92;18.55;;;;;;;;;;5026877;28;20189;-70
2021/06/08 09:00:27;;;;;;;24.40;19.50;;;;;;;;;;5013659;28;20189;-70
2021/06/08 09:02:54;;;;;;;22.73;19.05;;;;;;;;;;5025424;28;20174;-70
2021/06/08 09:05:20;;;;;;;23.70;18.95;;;;;;;;;;5011950;28;20545;-70
2021/06/08 09:07:45;;;;;;;23.23;19.17;;;;;;;;;;5019896;28;20551;-70
2021/06/08 09:10:13;;;;;;;24.98;18.17;;;;;;;;;;5013394;28;20202;-70
2021/06/08 09:12:39;;;;;;;23.25;17.88;;;;;;;;;;5023498;28;20268;-70
2021/06/08 09:15:05;;;;;;;20.65;16.67;;;;;;;;;;5014370;28;20697;-70
2021/06/08 09:17:31;;;;;;;19.95;15.90;;;;;;;;;;5016677;28;20247;-70
2021/06/08 09:19:56;;;;;;;19.83;15.07;;;;;;;;;;5013839;28;20190;-70
2021/06/08 09:22:22;;;;;;;20.30;14.63;;;;;;;;;;5017733;28;20533;-70
2021/06/08 09:24:54;;;;;;;17.40;14.43;;;;;;;;;;5014661;28;20194;-70
2021/06/08 09:27:28;;;;;;;16.50;13.80;;;;;;;;;;5021304;28;20178;-71
2021/06/08 09:29:53;;;;;;;18.92;15.07;;;;;;;;;;5011688;28;20209;-70
2021/06/08 09:32:27;;;;;;;18.38;14.38;;;;;;;;;;5024455;28;20676;-70
2021/06/08 09:35:00;;;;;;;18.65;14.40;;;;;;;;;;5020637;28;20217;-70
2021/06/08 09:37:40;;;;;;;17.98;14.48;;;;;;;;;;5024514;28;20177;-70
2021/06/08 09:40:22;;;;;;;15.70;12.88;;;;;;;;;;5014263;28;20697;-71
2021/06/08 09:43:07;;;;;;;15.23;12.73;;;;;;;;;;5021780;28;20229;-71
2021/06/08 09:45:46;;;;;;;18.08;14.52;;;;;;;;;;5017572;28;20205;-70
2021/06/08 09:48:13;;;;;;;15.15;12.80;;;;;;;;;;5020583;28;20218;-70
2021/06/08 09:50:41;;;;;;;17.90;14.98;;;;;;;;;;5029046;28;20194;-70
2021/06/08 09:53:27;;;;;;;18.88;14.07;;;;;;;;;;5011942;28;20628;-70
2021/06/08 09:55:52;;;;;;;20.38;15.02;;;;;;;;;;5026728;28;20210;-72
2021/06/08 09:58:18;;;;;;;17.23;13.98;;;;;;;;;;5010674;28;20213;-70
2021/06/08 10:01:04;;;;;;;18.60;15.23;;;;;;;;;;5027250;28;20210;-70
2021/06/08 10:03:47;;;;;;;18.27;14.60;;;;;;;;;;5012461;28;20218;-70
2021/06/08 10:06:24;;;;;;;18.52;14.32;;;;;;;;;;5024367;28;20232;-71
2021/06/08 10:09:00;;;;;;;18.27;15.48;;;;;;;;;;5018601;28;20552;-70
2021/06/08 10:11:31;;;;;;;19.13;15.10;;;;;;;;;;5027278;28;20194;-70
2021/06/08 10:14:18;;;;;;;18.95;15.20;;;;;;;;;;5019914;28;20189;-71
2021/06/08 10:16:45;;;;;;;17.88;14.80;;;;;;;;;;5023806;28;20189;-70
2021/06/08 10:19:23;;;;;;;18.45;14.80;;;;;;;;;;5014226;28;20191;-68
2021/06/08 10:21:49;;;;;;;18.80;14.90;;;;;;;;;;5024091;28;20288;-69
2021/06/08 10:24:15;;;;;;;18.50;14.18;;;;;;;;;;5016666;28;20567;-70
2021/06/08 10:26:51;;;;;;;19.45;14.57;;;;;;;;;;5028964;28;20272;-68
2021/06/08 10:29:17;;;;;;;18.33;14.43;;;;;;;;;;5017008;28;20299;-68
2021/06/08 10:31:43;;;;;;;16.52;14.05;;;;;;;;;;5024213;28;20182;-69
2021/06/08 10:34:11;;;;;;;16.60;14.77;;;;;;;;;;5023546;28;20197;-68
2021/06/08 10:36:39;;;;;;;22.08;14.93;;;;;;;;;;5030714;28;20182;-69
2021/06/08 10:39:07;;;;;;;16.65;14.43;;;;;;;;;;5017845;28;20190;-68
2021/06/08 10:41:35;;;;;;;17.35;14.32;;;;;;;;;;5024157;28;20590;-68
2021/06/08 10:44:01;;;;;;;14.45;12.90;;;;;;;;;;5015078;28;20224;-69
2021/06/08 10:46:36;;;;;;;15.98;13.35;;;;;;;;;;5027555;28;20186;-68
2021/06/08 10:49:04;;;;;;;15.18;13.00;;;;;;;;;;5017401;28;21663;-71
2021/06/08 10:51:33;;;;;;;14.02;12.52;;;;;;;;;;5023676;28;20189;-70
2021/06/08 10:53:59;;;;;;;14.30;11.93;;;;;;;;;;5022982;28;20170;-69
2021/06/08 10:56:35;;;;;;;14.15;12.65;;;;;;;;;;5016968;28;20190;-69
2021/06/08 10:59:08;;;;;;;14.02;12.25;;;;;;;;;;5023662;28;20186;-69
2021/06/08 11:01:43;;;;;;;16.33;12.10;;;;;;;;;;5017148;28;20571;-69
2021/06/08 11:04:12;;;;;;;15.75;12.35;;;;;;;;;;5029565;28;20169;-70
2021/06/08 11:06:44;;;;;;;14.38;12.73;;;;;;;;;;5018441;28;20201;-69
2021/06/08 11:09:15;;;;;;;12.60;11.30;;;;;;;;;;5018814;28;20198;-72
2021/06/08 11:12:00;;;;;;;15.73;12.38;;;;;;;;;;5016217;28;20558;-69
2021/06/08 11:17:01;;;;;;;12.48;11.18;;;;;;;;;;5015327;28;20193;-69
2021/06/08 11:19:44;;;;;;;11.45;10.25;;;;;;;;;;5023223;28;20167;-69
2021/06/08 11:22:12;;;;;;;11.80;10.20;;;;;;;;;;5012952;28;20198;-69
2021/06/08 11:24:40;;;;;;;14.52;10.27;;;;;;;;;;5023626;28;20231;-69
2021/06/08 11:27:06;;;;;;;11.00;9.95;;;;;;;;;;5013783;28;20768;-69
2021/06/08 11:29:43;;;;;;;13.60;9.85;;;;;;;;;;5024412;28;20670;-69
2021/06/08 11:32:08;;;;;;;11.00;9.80;;;;;;;;;;5017179;28;20232;-69
2021/06/08 11:35:15;;;;;;;12.57;9.73;;;;;;;;;;5023718;28;20206;-69
2021/06/08 11:37:59;;;;;;;11.65;9.63;;;;;;;;;;5013715;28;20651;-70
2021/06/08 11:40:39;;;;;;;12.45;10.82;;;;;;;;;;5023397;28;20197;-69
2021/06/08 11:43:27;;;;;;;11.45;10.25;;;;;;;;;;5015189;28;20361;-69
2021/06/08 11:46:03;;;;;;;12.52;10.90;;;;;;;;;;5025821;28;20190;-68
2021/06/08 11:48:30;;;;;;;11.93;10.43;;;;;;;;;;5019305;28;20212;-69
2021/06/08 11:50:56;;;;;;;11.93;10.55;;;;;;;;;;5024320;28;20191;-69
2021/06/08 11:53:21;;;;;;;12.20;9.65;;;;;;;;;;5017237;28;20198;-69
2021/06/08 11:56:04;;;;;;;12.50;9.70;;;;;;;;;;5025749;28;20252;-70
2021/06/08 11:58:31;;;;;;;13.00;10.45;;;;;;;;;;5019198;28;20194;-68
2021/06/08 12:00:57;;;;;;;13.38;10.68;;;;;;;;;;5026216;28;20213;-69
2021/06/08 12:03:35;;;;;;;12.35;10.70;;;;;;;;;;5011674;28;20240;-69
2021/06/08 12:06:02;;;;;;;11.43;9.68;;;;;;;;;;5023536;28;20186;-69
2021/06/08 12:08:32;;;;;;;9.77;8.88;;;;;;;;;;5015751;28;20567;-69
2021/06/08 12:11:18;;;;;;;11.20;9.80;;;;;;;;;;5026374;28;20527;-69
2021/06/08 12:13:44;;;;;;;11.65;10.45;;;;;;;;;;5017958;28;20657;-69
2021/06/08 12:16:16;;;;;;;11.80;10.60;;;;;;;;;;5025638;28;20190;-68
2021/06/08 12:18:42;;;;;;;12.52;11.20;;;;;;;;;;5014215;28;20190;-69
2021/06/08 12:21:17;;;;;;;13.43;10.15;;;;;;;;;;5028718;28;20204;-68
2021/06/08 12:23:43;;;;;;;13.10;9.65;;;;;;;;;;5016929;28;20216;-72
2021/06/08 12:26:18;;;;;;;12.35;10.50;;;;;;;;;;5019245;28;20198;-69
2021/06/08 12:29:00;;;;;;;11.07;9.77;;;;;;;;;;5022793;28;20209;-69
2021/06/08 12:31:26;;;;;;;12.73;10.52;;;;;;;;;;5019691;28;20563;-69
2021/06/08 12:33:52;;;;;;;14.15;10.30;;;;;;;;;;5019668;28;20182;-73
2021/06/08 12:36:18;;;;;;;9.95;8.80;;;;;;;;;;5010793;28;20662;-69
2021/06/08 12:38:52;;;;;;;12.15;9.98;;;;;;;;;;5021836;28;20178;-69
2021/06/08 12:41:22;;;;;;;13.15;10.00;;;;;;;;;;5010902;28;20186;-69
2021/06/08 12:43:55;;;;;;;10.75;9.60;;;;;;;;;;5022230;28;20313;-69
2021/06/08 12:46:31;;;;;;;11.13;9.63;;;;;;;;;;5013214;28;20189;-69
2021/06/08 12:49:18;;;;;;;14.40;9.55;;;;;;;;;;5020695;28;20593;-71
2021/06/08 12:51:55;;;;;;;11.27;10.05;;;;;;;;;;5012546;28;20194;-69
2021/06/08 12:54:35;;;;;;;12.85;10.90;;;;;;;;;;5025265;28;20305;-70
2021/06/08 12:57:04;;;;;;;11.60;10.40;;;;;;;;;;5011960;28;20646;-69
2021/06/08 12:59:33;;;;;;;11.70;10.15;;;;;;;;;;5025975;28;20550;-68
2021/06/08 13:02:01;;;;;;;14.38;10.52;;;;;;;;;;5012153;28;20278;-69
2021/06/08 13:04:27;;;;;;;10.68;9.57;;;;;;;;;;5024032;28;20265;-69
2021/06/08 13:06:59;;;;;;;11.00;9.80;;;;;;;;;;5014917;28;20309;-69
2021/06/08 13:09:24;;;;;;;12.20;9.77;;;;;;;;;;5022873;28;20788;-69
2021/06/08 13:12:05;;;;;;;11.32;8.55;;;;;;;;;;5009830;28;20233;-70
2021/06/08 13:14:30;;;;;;;11.23;9.60;;;;;;;;;;5022643;28;20673;-68
2021/06/08 13:16:56;;;;;;;13.07;9.93;;;;;;;;;;5012255;28;20185;-69
2021/06/08 13:19:26;;;;;;;11.35;10.20;;;;;;;;;;5023642;28;20571;-75
2021/06/08 13:21:57;;;;;;;12.18;10.98;;;;;;;;;;5012367;28;20939;-70
2021/06/08 13:24:25;;;;;;;12.02;10.10;;;;;;;;;;5019403;28;20269;-70
2021/06/08 13:26:52;;;;;;;11.75;10.10;;;;;;;;;;5020861;28;20192;-70
2021/06/08 13:29:21;;;;;;;11.70;10.50;;;;;;;;;;5018095;28;20210;-70
2021/06/08 13:31:55;;;;;;;12.00;10.90;;;;;;;;;;5017311;28;20190;-70
2021/06/08 13:34:27;;;;;;;17.58;12.68;;;;;;;;;;5010616;28;20189;-70
2021/06/08 13:37:02;;;;;;;12.68;11.43;;;;;;;;;;5017485;28;20181;-70
2021/06/08 13:39:36;;;;;;;13.90;11.75;;;;;;;;;;5011580;28;20221;-70
2021/06/08 13:42:20;;;;;;;10.48;9.48;;;;;;;;;;5019164;28;20329;-71
2021/06/08 13:45:00;;;;;;;11.23;10.13;;;;;;;;;;5010441;28;20206;-71
2021/06/08 13:47:40;;;;;;;12.35;11.15;;;;;;;;;;4748835;28;10001237;-69
2021/06/08 13:50:21;;;;;;;12.10;10.90;;;;;;;;;;5010174;28;20518;-69
2021/06/08 13:53:06;;;;;;;12.95;11.57;;;;;;;;;;5020587;28;20686;-69
2021/06/08 13:55:35;;;;;;;12.93;11.20;;;;;;;;;;5007946;28;20222;-69
2021/06/08 14:01:11;;;;;;;10.80;9.70;;;;;;;;;;5008943;28;20265;-69
2021/06/08 14:03:38;;;;;;;12.10;10.15;;;;;;;;;;5012688;28;20264;-69
2021/06/08 14:06:08;;;;;;;11.65;10.45;;;;;;;;;;5010572;28;20182;-70
2021/06/08 14:08:34;;;;;;;11.32;10.20;;;;;;;;;;5021176;28;20285;-70
2021/06/08 14:11:00;;;;;;;11.55;10.45;;;;;;;;;;5010295;28;20209;-69
2021/06/08 14:13:43;;;;;;;14.40;12.43;;;;;;;;;;5015881;28;20186;-69
2021/06/08 14:16:19;;;;;;;11.82;10.63;;;;;;;;;;5006636;28;20196;-69
2021/06/08 14:18:45;;;;;;;13.45;11.65;;;;;;;;;;5013550;28;20166;-69
2021/06/08 14:21:10;;;;;;;12.75;10.68;;;;;;;;;;5008592;28;20200;-69
2021/06/08 14:23:37;;;;;;;12.07;10.75;;;;;;;;;;5013790;28;20174;-69
2021/06/08 14:26:15;;;;;;;12.13;10.38;;;;;;;;;;5007958;28;20182;-69
2021/06/08 14:28:40;;;;;;;13.07;11.35;;;;;;;;;;5017082;28;20197;-69
2021/06/08 14:31:06;;;;;;;12.43;11.13;;;;;;;;;;5009978;28;20702;-69
2021/06/08 14:33:31;;;;;;;11.77;10.57;;;;;;;;;;5018874;28;20182;-69
2021/06/08 14:35:56;;;;;;;12.18;10.98;;;;;;;;;;5008847;28;20629;-69
2021/06/08 14:38:22;;;;;;;14.93;11.15;;;;;;;;;;5019614;28;20621;-68